createdAt,value
2019-01-24T00:00:30.619Z,90.17
2019-01-24T00:02:59.730Z,85.53
2019-01-24T00:05:28.664Z,86.10
2019-01-24T00:07:57.777Z,89.43
2019-01-24T00:10:26.825Z,86.37
2019-01-24T00:12:55.832Z,89.80
2019-01-24T00:15:24.765Z,88.17
2019-01-24T00:17:53.772Z,79.80
2019-01-24T00:20:22.819Z,87.60
2019-01-24T00:22:51.826Z,81.33
2019-01-24T00:25:20.860Z,74.10
2019-01-24T00:27:49.979Z,83.10
2019-01-24T00:30:19.025Z,82.03
2019-01-24T00:32:47.962Z,91.93
2019-01-24T00:35:16.971Z,88.57
2019-01-24T00:37:45.915Z,79.07
2019-01-24T00:40:17.414Z,72.40
2019-01-24T00:42:46.351Z,64.33
2019-01-24T00:45:15.358Z,83.27
2019-01-24T00:47:44.298Z,73.43
2019-01-24T00:50:14.697Z,76.17
2019-01-24T00:52:43.736Z,71.00
2019-01-24T00:55:15.214Z,78.93
2019-01-24T00:57:44.243Z,77.77
2019-01-24T01:00:16.407Z,77.17
2019-01-24T01:02:45.446Z,67.40
2019-01-24T01:05:14.453Z,76.73
2019-01-24T01:07:43.496Z,68.10
2019-01-24T01:10:13.210Z,75.00
2019-01-24T01:12:42.153Z,81.50
2019-01-24T01:15:18.579Z,66.93
2019-01-24T01:17:52.351Z,76.90
2019-01-24T01:20:22.557Z,79.97
2019-01-24T01:22:51.595Z,81.87
2019-01-24T01:25:20.602Z,76.03
2019-01-24T01:27:49.640Z,79.90
2019-01-24T01:30:21.244Z,78.70
2019-01-24T01:32:50.287Z,88.20
2019-01-24T01:35:19.286Z,78.37
2019-01-24T01:37:48.222Z,80.80
2019-01-24T01:40:18.924Z,83.77
2019-01-24T01:42:48.092Z,81.93
2019-01-24T01:45:23.198Z,78.80
2019-01-24T01:47:52.328Z,70.83
2019-01-24T01:50:22.865Z,75.60
2019-01-24T01:52:51.970Z,83.23
2019-01-24T01:55:21.022Z,65.70
2019-01-24T01:57:50.020Z,83.57
2019-01-24T02:00:20.963Z,76.90
2019-01-24T02:02:50.066Z,77.50
2019-01-24T02:05:19.105Z,74.03
2019-01-24T02:07:48.209Z,72.40
2019-01-24T02:10:21.841Z,72.90
2019-01-24T02:12:50.946Z,79.10
2019-01-24T02:15:19.997Z,77.93
2019-01-24T02:17:48.985Z,77.70
2019-01-24T02:20:19.726Z,78.97
2019-01-24T02:22:48.725Z,72.23
2019-01-24T02:25:17.891Z,86.90
2019-01-24T02:27:47.005Z,77.47
2019-01-24T02:30:21.357Z,80.37
2019-01-24T02:32:50.458Z,91.57
2019-01-24T02:35:19.393Z,80.83
2019-01-24T02:37:48.507Z,75.20
2019-01-24T02:40:17.540Z,76.50
2019-01-24T02:42:46.548Z,76.13
2019-01-24T02:45:21.034Z,72.67
2019-01-24T02:47:50.056Z,84.60
2019-01-24T02:50:20.495Z,79.57
2019-01-24T02:52:49.498Z,80.00
2019-01-24T02:55:18.431Z,78.83
2019-01-24T02:57:47.433Z,77.50
2019-01-24T03:00:19.045Z,78.87
2019-01-24T03:02:48.249Z,89.03
2019-01-24T03:05:18.806Z,75.40
2019-01-24T03:07:47.832Z,81.97
2019-01-24T03:10:16.856Z,81.10
2019-01-24T03:12:45.885Z,86.43
2019-01-24T03:15:20.663Z,85.13
2019-01-24T03:17:49.705Z,80.93
2019-01-24T03:20:18.822Z,75.60
2019-01-24T03:22:47.852Z,78.90
2019-01-24T03:25:17.655Z,93.70
2019-01-24T03:27:46.592Z,90.80
2019-01-24T03:30:20.349Z,92.60
2019-01-24T03:32:49.401Z,81.43
2019-01-24T03:35:20.586Z,91.73
2019-01-24T03:37:49.639Z,92.23
2019-01-24T03:40:18.722Z,90.23
2019-01-24T03:42:47.790Z,82.83
2019-01-24T03:45:18.451Z,86.83
2019-01-24T03:47:47.590Z,91.37
2019-01-24T03:50:19.702Z,83.07
2019-01-24T03:52:48.939Z,88.17
2019-01-24T03:55:20.203Z,84.67
2019-01-24T03:57:49.232Z,88.90
2019-01-24T04:00:22.207Z,87.87
2019-01-24T04:02:51.136Z,81.93
2019-01-24T04:05:20.158Z,90.53
2019-01-24T04:07:49.091Z,95.20
2019-01-24T04:10:22.154Z,88.50
2019-01-24T04:12:51.095Z,87.37
2019-01-24T04:15:22.562Z,90.13
2019-01-24T04:17:51.605Z,89.93
2019-01-24T04:20:20.546Z,94.53
2019-01-24T04:22:49.659Z,84.63
2019-01-24T04:25:18.726Z,85.43
2019-01-24T04:27:47.718Z,79.03
2019-01-24T04:30:19.124Z,93.70
2019-01-24T04:32:48.131Z,83.70
2019-01-24T04:35:19.987Z,91.93
2019-01-24T04:37:48.013Z,93.50
2019-01-24T04:40:18.486Z,91.53
2019-01-24T04:42:47.570Z,90.27
2019-01-24T04:45:17.691Z,90.13
2019-01-24T04:47:46.800Z,83.10
2019-01-24T04:50:17.340Z,84.80
2019-01-24T04:52:46.363Z,84.43
2019-01-24T04:55:19.393Z,88.50
2019-01-24T04:57:48.604Z,91.50
2019-01-24T05:00:25.798Z,80.80
2019-01-24T05:02:54.823Z,83.17
2019-01-24T05:05:27.838Z,91.43
2019-01-24T05:07:54.307Z,89.37
2019-01-24T05:10:23.334Z,83.47
2019-01-24T05:12:52.447Z,92.67
2019-01-24T05:15:21.485Z,82.37
2019-01-24T05:17:52.432Z,81.67
2019-01-24T05:20:21.525Z,84.77
2019-01-24T05:22:50.831Z,89.70
2019-01-24T05:25:19.769Z,93.67
2019-01-24T05:27:48.886Z,89.13
2019-01-24T05:30:23.799Z,80.40
2019-01-24T05:32:52.897Z,99.93
2019-01-24T05:35:21.986Z,87.37
2019-01-24T05:37:51.130Z,93.23
2019-01-24T05:40:20.241Z,89.40
2019-01-24T05:42:49.392Z,93.70
2019-01-24T05:45:21.730Z,83.40
2019-01-24T05:47:50.340Z,86.53
2019-01-24T05:50:19.471Z,93.00
2019-01-24T05:52:48.412Z,102.23
2019-01-24T05:55:17.521Z,90.47
2019-01-24T05:57:46.568Z,90.07
2019-01-24T06:00:19.039Z,93.70
2019-01-24T06:02:48.068Z,88.87
2019-01-24T06:05:17.080Z,105.03
2019-01-24T06:07:46.140Z,96.10
2019-01-24T06:10:16.326Z,92.10
2019-01-24T06:12:45.358Z,88.63
2019-01-24T06:15:16.366Z,94.70
2019-01-24T06:17:45.411Z,92.53
2019-01-24T06:20:14.516Z,90.67
2019-01-24T06:22:43.555Z,87.20
2019-01-24T06:25:13.862Z,98.43
2019-01-24T06:27:42.815Z,93.43
2019-01-24T06:30:15.038Z,85.67
2019-01-24T06:32:44.079Z,90.20
2019-01-24T06:35:13.185Z,89.43
2019-01-24T06:37:42.224Z,84.83
2019-01-24T06:40:13.223Z,89.53
2019-01-24T06:42:42.176Z,93.13
2019-01-24T06:45:42.808Z,86.93
2019-01-24T06:48:11.816Z,89.57
2019-01-24T06:51:02.195Z,95.60
2019-01-24T06:53:31.149Z,101.70
2019-01-24T06:56:00.141Z,93.67
2019-01-24T06:58:29.076Z,85.40
2019-01-24T07:00:58.080Z,93.67
2019-01-24T07:03:27.034Z,96.03
2019-01-24T07:05:56.059Z,86.00
2019-01-24T07:08:25.008Z,87.87
2019-01-24T07:10:54.007Z,85.00
2019-01-24T07:13:22.931Z,103.07
2019-01-24T07:15:52.032Z,94.63
2019-01-24T07:18:20.976Z,99.40
2019-01-24T07:20:50.080Z,100.17
2019-01-24T07:23:19.022Z,98.33
2019-01-24T07:25:48.025Z,97.13
2019-01-24T07:28:16.958Z,100.10
2019-01-24T07:30:45.974Z,84.07
2019-01-24T07:33:14.911Z,90.30
2019-01-24T07:35:43.856Z,98.43
2019-01-24T07:38:12.881Z,105.23
2019-01-24T07:40:41.818Z,95.30
2019-01-24T07:43:10.825Z,91.27
2019-01-24T07:45:40.774Z,100.57
2019-01-24T07:48:35.839Z,93.50
2019-01-24T07:51:37.738Z,87.90
2019-01-24T07:54:00.006Z,91.10
2019-01-24T07:56:24.895Z,97.30
2019-01-24T07:58:53.984Z,108.87
2019-01-24T08:01:24.157Z,98.93
2019-01-24T08:03:53.240Z,94.87
2019-01-24T08:06:22.284Z,96.23
2019-01-24T08:08:51.293Z,97.07
2019-01-24T08:11:20.231Z,90.63
2019-01-24T08:13:49.234Z,93.63
2019-01-24T08:16:18.198Z,91.23
2019-01-24T08:18:47.187Z,96.57
2019-01-24T08:21:16.136Z,92.00
2019-01-24T08:23:45.149Z,94.77
2019-01-24T08:26:14.186Z,107.90
2019-01-24T08:28:43.296Z,103.83
2019-01-24T08:31:12.325Z,90.63
2019-01-24T08:33:41.421Z,93.83
2019-01-24T08:36:15.556Z,88.77
2019-01-24T08:38:41.027Z,102.10
2019-01-24T08:41:09.957Z,97.00
2019-01-24T08:43:39.068Z,93.47
2019-01-24T08:46:08.123Z,97.93
2019-01-24T08:48:37.246Z,89.30
2019-01-24T08:51:06.178Z,97.80
2019-01-24T08:53:35.230Z,89.57
2019-01-24T08:56:04.256Z,94.53
2019-01-24T08:58:33.196Z,90.47
2019-01-24T09:01:02.301Z,94.70
2019-01-24T09:03:31.330Z,105.13
2019-01-24T09:06:00.452Z,95.00
2019-01-24T09:08:29.477Z,96.37
2019-01-24T09:10:58.485Z,101.50
2019-01-24T09:13:27.572Z,100.33
2019-01-24T09:15:56.570Z,105.80
2019-01-24T09:18:25.507Z,97.87
2019-01-24T09:20:54.532Z,100.87
2019-01-24T09:23:23.473Z,96.93
2019-01-24T09:25:52.471Z,96.70
2019-01-24T09:28:21.506Z,100.83
2019-01-24T09:30:50.531Z,93.80
2019-01-24T09:33:19.458Z,97.23
2019-01-24T09:35:48.470Z,104.77
2019-01-24T09:38:17.408Z,85.43
2019-01-24T09:40:46.410Z,105.20
2019-01-24T09:43:15.493Z,98.50
2019-01-24T09:45:44.456Z,95.17
2019-01-24T09:48:13.534Z,98.00
2019-01-24T09:50:42.656Z,95.07
2019-01-24T09:53:11.584Z,90.43
2019-01-24T09:55:40.696Z,89.87
2019-01-24T09:58:09.758Z,93.30
2019-01-24T10:00:38.758Z,88.03
2019-01-24T10:03:07.702Z,85.17
2019-01-24T10:05:37.005Z,93.83
2019-01-24T10:08:05.938Z,89.43
2019-01-24T10:10:35.422Z,91.83
2019-01-24T10:13:04.563Z,94.40
2019-01-24T10:15:36.155Z,85.97
2019-01-24T10:18:10.138Z,94.27
2019-01-24T10:20:38.882Z,100.27
2019-01-24T10:23:07.945Z,87.47
2019-01-24T10:25:37.151Z,98.03
2019-01-24T10:28:06.150Z,91.43
2019-01-24T10:30:35.202Z,94.10
2019-01-24T10:33:04.196Z,95.77
2019-01-24T10:35:33.147Z,91.73
2019-01-24T10:38:02.149Z,89.10
2019-01-24T10:40:32.697Z,89.57
2019-01-24T10:43:01.715Z,94.33
2019-01-24T10:45:30.639Z,87.97
2019-01-24T10:47:59.640Z,111.47
2019-01-24T10:50:29.178Z,100.03
2019-01-24T10:52:58.172Z,97.90
2019-01-24T10:55:28.915Z,93.63
2019-01-24T10:57:59.531Z,98.57
2019-01-24T11:00:37.154Z,99.03
2019-01-24T11:03:08.255Z,87.47
2019-01-24T11:05:37.192Z,94.57
2019-01-24T11:08:06.315Z,97.30
2019-01-24T11:10:35.455Z,95.93
2019-01-24T11:13:04.444Z,98.00
2019-01-24T11:15:33.385Z,100.20
2019-01-24T11:18:02.509Z,92.17
2019-01-24T11:20:31.423Z,97.83
2019-01-24T11:23:00.521Z,96.10
2019-01-24T11:25:29.460Z,96.73
2019-01-24T11:27:58.621Z,90.87
2019-01-24T11:30:29.117Z,93.37
2019-01-24T11:32:58.111Z,93.03
2019-01-24T11:35:32.494Z,95.30
2019-01-24T11:38:01.501Z,92.60
2019-01-24T11:40:30.438Z,91.17
2019-01-24T11:42:59.445Z,87.73
2019-01-24T11:45:39.760Z,95.50
2019-01-24T11:48:08.769Z,95.13
2019-01-24T11:50:37.690Z,90.57
2019-01-24T11:53:06.790Z,98.97
2019-01-24T11:55:35.727Z,82.33
2019-01-24T11:58:04.855Z,88.10
2019-01-24T12:00:38.075Z,94.17
2019-01-24T12:03:07.316Z,88.13
2019-01-24T12:05:36.301Z,84.63
2019-01-24T12:08:05.548Z,83.43
2019-01-24T12:10:34.557Z,75.27
2019-01-24T12:13:03.496Z,89.57
2019-01-24T12:15:32.808Z,93.97
2019-01-24T12:18:01.740Z,89.63
2019-01-24T12:20:30.837Z,86.97
2019-01-24T12:22:59.768Z,96.43
2019-01-24T12:25:28.776Z,103.97
2019-01-24T12:27:57.704Z,85.50
2019-01-24T12:30:28.706Z,91.13
2019-01-24T12:32:58.037Z,93.77
2019-01-24T12:35:27.138Z,99.43
2019-01-24T12:37:56.061Z,94.03
2019-01-24T12:40:25.064Z,92.53
2019-01-24T12:42:54.006Z,82.27
2019-01-24T12:45:25.667Z,86.53
2019-01-24T12:47:54.604Z,87.13
2019-01-24T12:50:23.708Z,84.37
2019-01-24T12:52:52.650Z,76.67
2019-01-24T12:55:21.657Z,83.17
2019-01-24T12:57:50.581Z,91.33
2019-01-24T13:00:34.066Z,80.17
2019-01-24T13:03:03.018Z,80.00
2019-01-24T13:05:32.114Z,88.87
2019-01-24T13:08:01.159Z,88.60
2019-01-24T13:10:36.314Z,88.40
2019-01-24T13:13:05.469Z,94.50
2019-01-24T13:15:34.471Z,99.60
2019-01-24T13:18:03.411Z,91.97
2019-01-24T13:20:32.463Z,97.03
2019-01-24T13:23:01.510Z,90.87
2019-01-24T13:25:34.197Z,95.07
2019-01-24T13:28:03.142Z,90.67
2019-01-24T13:30:33.647Z,91.37
2019-01-24T13:33:02.681Z,93.27
2019-01-24T13:35:31.699Z,96.87
2019-01-24T13:38:00.652Z,94.27
2019-01-24T13:40:30.901Z,101.80
2019-01-24T13:43:00.635Z,98.10
2019-01-24T13:45:34.672Z,95.37
2019-01-24T13:48:03.677Z,92.23
2019-01-24T13:50:32.627Z,101.40
2019-01-24T13:53:01.622Z,95.57
2019-01-24T13:55:30.554Z,102.43
2019-01-24T13:57:59.574Z,104.30
2019-01-24T14:00:31.616Z,83.87
2019-01-24T14:03:11.944Z,93.50
2019-01-24T14:05:40.896Z,90.93
2019-01-24T14:08:10.016Z,99.27
2019-01-24T14:10:38.953Z,90.90
2019-01-24T14:13:08.062Z,91.30
2019-01-24T14:15:37.087Z,101.13
2019-01-24T14:18:06.510Z,96.30
2019-01-24T14:20:35.446Z,98.10
2019-01-24T14:23:04.577Z,98.60
2019-01-24T14:25:33.585Z,101.93
2019-01-24T14:28:02.693Z,97.73
2019-01-24T14:30:31.635Z,90.03
2019-01-24T14:33:00.744Z,89.47
2019-01-24T14:35:29.777Z,95.77
2019-01-24T14:37:58.967Z,85.80
2019-01-24T14:40:28.004Z,87.10
2019-01-24T14:42:57.019Z,90.07
2019-01-24T14:45:27.460Z,87.20
2019-01-24T14:47:56.443Z,97.30
2019-01-24T14:50:30.081Z,90.90
2019-01-24T14:52:59.197Z,89.57
2019-01-24T14:55:28.127Z,86.53
2019-01-24T14:57:57.233Z,94.27
2019-01-24T15:00:28.725Z,92.30
2019-01-24T15:02:57.723Z,99.13
2019-01-24T15:05:27.022Z,88.43
2019-01-24T15:07:56.180Z,94.53
2019-01-24T15:10:25.223Z,98.57
2019-01-24T15:12:54.252Z,95.07
2019-01-24T15:15:23.679Z,90.20
2019-01-24T15:17:52.607Z,88.87
2019-01-24T15:20:21.915Z,92.37
2019-01-24T15:22:50.865Z,90.83
2019-01-24T15:25:21.568Z,90.20
2019-01-24T15:27:50.609Z,94.40
2019-01-24T15:30:27.211Z,90.00
2019-01-24T15:32:56.154Z,84.60
2019-01-24T15:35:25.155Z,96.27
2019-01-24T15:37:54.854Z,97.33
2019-01-24T15:40:34.887Z,94.13
2019-01-24T15:43:03.974Z,98.97
2019-01-24T15:45:32.968Z,96.60
2019-01-24T15:48:01.919Z,99.67
2019-01-24T15:50:30.946Z,93.70
2019-01-24T15:52:59.995Z,105.20
2019-01-24T15:55:29.108Z,110.70
2019-01-24T15:57:58.061Z,106.90
2019-01-24T16:00:32.153Z,104.27
2019-01-24T16:03:01.081Z,105.33
2019-01-24T16:05:30.106Z,102.97
2019-01-24T16:08:01.902Z,103.87
2019-01-24T16:10:29.584Z,108.30
2019-01-24T16:12:58.521Z,101.30
2019-01-24T16:15:32.386Z,97.40
2019-01-24T16:18:01.419Z,97.47
2019-01-24T16:20:30.925Z,97.20
2019-01-24T16:22:59.952Z,99.87
2019-01-24T16:25:33.391Z,93.60
2019-01-24T16:28:02.343Z,101.37
2019-01-24T16:30:35.471Z,106.67
2019-01-24T16:33:06.237Z,106.20
2019-01-24T16:35:35.231Z,100.37
2019-01-24T16:38:09.346Z,101.10
2019-01-24T16:40:34.734Z,96.33
2019-01-24T16:43:03.675Z,89.43
2019-01-24T16:45:32.674Z,100.63
2019-01-24T16:48:01.716Z,98.00
2019-01-24T16:50:30.730Z,96.00
2019-01-24T16:52:59.785Z,94.90
2019-01-24T16:55:28.906Z,95.53
2019-01-24T16:57:57.830Z,95.37
2019-01-24T17:00:35.410Z,103.80
2019-01-24T17:03:04.457Z,101.57
2019-01-24T17:08:38.168Z,101.93
2019-01-24T17:11:07.269Z,91.80
2019-01-24T17:13:36.214Z,100.47
2019-01-24T17:16:05.322Z,101.67
2019-01-24T17:18:34.362Z,107.03
2019-01-24T17:21:03.361Z,97.50
2019-01-24T17:23:32.310Z,102.50
2019-01-24T17:26:01.578Z,101.67
2019-01-24T17:28:30.642Z,115.03
2019-01-24T17:30:59.688Z,113.70
2019-01-24T17:33:28.772Z,95.53
2019-01-24T17:39:17.602Z,99.70
2019-01-24T17:41:46.724Z,94.00
2019-01-24T17:44:15.727Z,106.70
2019-01-24T17:46:44.734Z,105.70
2019-01-24T17:49:13.986Z,106.70
2019-01-24T17:51:43.034Z,97.80
2019-01-24T17:54:12.141Z,108.13
2019-01-24T17:56:41.082Z,106.10
2019-01-24T17:59:10.200Z,109.13
2019-01-24T18:01:39.241Z,98.00
2019-01-24T18:04:08.255Z,110.77
2019-01-24T18:06:37.210Z,104.63
2019-01-24T18:09:07.325Z,103.67
2019-01-24T18:11:36.494Z,124.20
2019-01-24T18:14:06.789Z,103.93
2019-01-24T18:16:35.721Z,109.53
2019-01-24T18:19:04.731Z,108.67
2019-01-24T18:21:33.799Z,114.10
2019-01-24T18:24:02.805Z,106.70
2019-01-24T18:26:31.791Z,105.67
2019-01-24T18:29:00.811Z,109.37
2019-01-24T18:31:29.747Z,104.60
2019-01-24T18:33:58.980Z,104.43
2019-01-24T18:36:28.000Z,102.53
2019-01-24T18:38:56.995Z,103.97
2019-01-24T18:41:26.025Z,110.10
2019-01-24T18:43:55.041Z,118.33
2019-01-24T18:46:23.986Z,114.75
2019-01-24T18:48:55.705Z,111.07
2019-01-24T18:51:24.801Z,112.07
2019-01-24T18:53:53.813Z,109.83
2019-01-24T18:56:22.855Z,105.50
2019-01-24T18:58:51.969Z,101.37
2019-01-24T19:01:20.915Z,113.77
2019-01-24T19:03:49.913Z,114.63
2019-01-24T19:06:18.948Z,101.60
2019-01-24T19:08:48.047Z,109.53
2019-01-24T19:11:17.011Z,108.00
2019-01-24T19:13:46.036Z,98.07
2019-01-24T19:16:15.012Z,105.83
2019-01-24T19:18:44.001Z,105.90
2019-01-24T19:21:12.943Z,101.83
2019-01-24T19:23:41.881Z,106.73
2019-01-24T19:26:10.883Z,103.90
2019-01-24T19:28:39.934Z,111.60
2019-01-24T19:31:09.031Z,105.83
2019-01-24T19:33:38.071Z,107.03
2019-01-24T19:36:07.089Z,108.20
2019-01-24T19:38:36.012Z,117.23
2019-01-24T19:41:05.108Z,114.53
2019-01-24T19:43:34.045Z,112.10
2019-01-24T19:46:03.053Z,112.30
2019-01-24T19:48:31.989Z,107.47
2019-01-24T19:51:01.093Z,109.20
2019-01-24T19:53:30.035Z,107.80
2019-01-24T19:55:59.039Z,108.07
2019-01-24T19:58:27.986Z,108.80
2019-01-24T20:00:56.983Z,99.83
2019-01-24T20:03:25.914Z,107.20
2019-01-24T20:05:55.019Z,109.47
2019-01-24T20:08:23.955Z,104.07
2019-01-24T20:10:52.980Z,113.27
2019-01-24T20:13:21.915Z,111.70
2019-01-24T20:15:50.925Z,110.47
2019-01-24T20:18:19.866Z,110.10
2019-01-24T20:20:48.978Z,109.47
2019-01-24T20:23:18.017Z,101.60
2019-01-24T20:25:47.025Z,109.80
2019-01-24T20:28:15.966Z,100.30
2019-01-24T20:30:44.916Z,118.50
2019-01-24T20:33:13.932Z,113.07
2019-01-24T20:35:45.762Z,112.67
2019-01-24T20:38:14.774Z,108.47
2019-01-24T20:40:43.808Z,98.23
2019-01-24T20:43:13.412Z,110.40
2019-01-24T20:45:42.344Z,104.27
2019-01-24T20:48:11.355Z,106.30
2019-01-24T20:50:40.288Z,106.83
2019-01-24T20:53:09.471Z,113.50
2019-01-24T20:55:38.537Z,93.10
2019-01-24T20:58:07.531Z,110.17
2019-01-24T21:00:36.476Z,111.47
2019-01-24T21:03:05.582Z,104.43
2019-01-24T21:05:34.522Z,103.20
2019-01-24T21:08:03.636Z,109.20
2019-01-24T21:10:32.567Z,101.90
2019-01-24T21:13:01.579Z,107.07
2019-01-24T21:15:30.517Z,118.87
2019-01-24T21:17:59.621Z,110.63
2019-01-24T21:20:30.373Z,116.27
2019-01-24T21:22:59.394Z,107.20
2019-01-24T21:25:28.326Z,105.63
2019-01-24T21:27:57.532Z,113.87
2019-01-24T21:30:31.887Z,106.80
2019-01-24T21:33:09.004Z,103.70
2019-01-24T21:35:43.804Z,113.37
2019-01-24T21:38:12.788Z,112.67
2019-01-24T21:40:41.835Z,114.80
2019-01-24T21:43:10.942Z,111.67
2019-01-24T21:45:39.876Z,110.87
2019-01-24T21:48:08.911Z,114.33
2019-01-24T21:50:37.842Z,103.80
2019-01-24T21:53:06.982Z,111.33
2019-01-24T21:55:35.893Z,106.57
2019-01-24T21:58:05.098Z,109.07
2019-01-24T22:00:34.132Z,126.00
2019-01-24T22:03:03.140Z,115.27
2019-01-24T22:05:32.097Z,118.23
2019-01-24T22:08:01.173Z,106.73
2019-01-24T22:10:30.914Z,106.53
2019-01-24T22:13:00.043Z,117.87
2019-01-24T22:15:31.740Z,162.30
2019-01-24T22:18:00.939Z,181.47
2019-01-24T22:20:29.879Z,170.87
2019-01-24T22:22:58.918Z,128.83
2019-01-24T22:25:30.036Z,124.73
2019-01-24T22:27:59.176Z,112.80
2019-01-24T22:30:35.515Z,126.90
2019-01-24T22:33:04.859Z,129.47
2019-01-24T22:35:33.867Z,103.00
2019-01-24T22:38:02.816Z,115.97
2019-01-24T22:40:31.912Z,117.27
2019-01-24T22:43:00.950Z,107.97
2019-01-24T22:45:29.977Z,108.07
2019-01-24T22:47:58.886Z,113.07
2019-01-24T22:50:27.993Z,112.57
2019-01-24T22:52:57.033Z,101.53
2019-01-24T22:55:26.045Z,109.50
2019-01-24T22:57:54.981Z,103.07
2019-01-24T23:00:49.224Z,105.13
2019-01-24T23:03:21.227Z,112.43
2019-01-24T23:05:50.238Z,113.70
2019-01-24T23:08:19.273Z,106.37
2019-01-24T23:10:48.378Z,106.47
2019-01-24T23:13:17.322Z,108.57
2019-01-24T23:15:46.340Z,111.53
2019-01-24T23:18:15.279Z,111.13
2019-01-24T23:20:44.368Z,104.27
2019-01-24T23:23:13.324Z,114.80
2019-01-24T23:25:42.431Z,111.20
2019-01-24T23:28:11.488Z,113.03
2019-01-24T23:30:40.485Z,109.77
2019-01-24T23:33:09.454Z,101.97
2019-01-24T23:35:38.482Z,108.17
2019-01-24T23:38:07.427Z,111.67
2019-01-24T23:40:36.427Z,99.13
2019-01-24T23:43:05.470Z,108.67
2019-01-24T23:45:34.583Z,102.17
2019-01-24T23:48:03.639Z,102.40
2019-01-24T23:50:32.651Z,104.43
2019-01-24T23:53:01.605Z,114.93
2019-01-24T23:55:30.542Z,98.97
2019-01-24T23:57:59.542Z,108.77
